Terminal Aerodrome Forecast
Issued by NWS Rapid City, SD

Home | Current Version | Previous Version | Text Only | Print | Product List | Glossary Off
Versions: 1 2 3 4 5 6 7 8 9 10 11 12 13 14 15 16 17 18

548
FTUS43 KUNR 231138
TAFRAP
TAF
KRAP 231138Z 2312/2412 04010KT 3SM -FZDZ BR OVC006
     FM231300 03012KT 3SM -SN BR OVC006
      TEMPO 2314/2316 1SM -SN
     FM231600 01020G30KT 1/2SM SN OVC008
     FM240000 36017KT 1 1/2SM -SN OVC010
     FM240600 35014KT 3SM -SN OVC015=

USA.gov is the U.S. government's official web portal to all federal, state and local government web resources and services.